createdAt,value
2018-09-03T00:00:09.653Z,8.57
2018-09-03T00:02:39.615Z,7.43
2018-09-03T00:05:08.924Z,6.57
2018-09-03T00:07:40.144Z,5.47
2018-09-03T00:10:10.041Z,6.85
2018-09-03T00:12:40.133Z,6.65
2018-09-03T00:15:09.443Z,6.15
2018-09-03T00:17:39.570Z,5.30
2018-09-03T00:20:09.638Z,6.22
2018-09-03T00:22:38.849Z,7.53
2018-09-03T00:25:08.424Z,5.22
2018-09-03T00:27:38.183Z,4.55
2018-09-03T00:30:07.512Z,7.25
2018-09-03T00:35:46.219Z,5.33
2018-09-03T00:41:25.691Z,5.65
2018-09-03T00:44:10.884Z,7.50
2018-09-03T00:46:46.389Z,5.35
2018-09-03T00:49:15.728Z,5.82
2018-09-03T00:51:45.100Z,6.35
2018-09-03T00:54:15.342Z,8.00
2018-09-03T00:56:46.560Z,5.05
2018-09-03T00:59:15.715Z,4.62
2018-09-03T01:01:45.862Z,5.10
2018-09-03T01:04:15.374Z,5.35
2018-09-03T01:06:44.773Z,6.65
2018-09-03T01:09:15.092Z,4.70
2018-09-03T01:11:45.402Z,5.78
2018-09-03T01:14:15.192Z,7.90
2018-09-03T01:16:46.226Z,7.20
2018-09-03T01:19:16.879Z,6.25
2018-09-03T01:21:48.113Z,6.25
2018-09-03T01:24:17.822Z,5.62
2018-09-03T01:26:47.091Z,5.85
2018-09-03T01:29:16.401Z,8.10
2018-09-03T01:31:46.017Z,5.95
2018-09-03T01:34:15.391Z,6.45
2018-09-03T01:36:45.148Z,4.55
2018-09-03T01:39:14.594Z,4.57
2018-09-03T01:41:44.380Z,8.93
2018-09-03T01:44:13.963Z,5.12
2018-09-03T01:46:44.116Z,7.55
2018-09-03T01:49:13.875Z,8.90
2018-09-03T01:51:44.200Z,4.93
2018-09-03T01:54:16.070Z,7.32
2018-09-03T01:56:46.604Z,6.10
2018-09-03T01:59:16.783Z,7.62
2018-09-03T02:01:46.397Z,6.53
2018-09-03T02:04:15.891Z,6.05
2018-09-03T02:06:45.570Z,7.60
2018-09-03T02:09:15.633Z,7.07
2018-09-03T02:11:45.260Z,5.78
2018-09-03T02:14:14.777Z,4.40
2018-09-03T02:16:45.344Z,7.75
2018-09-03T02:19:14.658Z,6.47
2018-09-03T02:21:44.633Z,6.62
2018-09-03T02:24:15.137Z,7.80
2018-09-03T02:26:44.773Z,7.28
2018-09-03T02:29:15.500Z,4.68
2018-09-03T02:31:45.561Z,6.68
2018-09-03T02:34:15.127Z,8.73
2018-09-03T02:36:46.803Z,6.37
2018-09-03T02:39:16.347Z,7.55
2018-09-03T02:41:45.885Z,5.55
2018-09-03T02:44:15.758Z,5.55
2018-09-03T02:46:45.400Z,4.93
2018-09-03T02:49:14.702Z,4.60
2018-09-03T02:51:44.087Z,7.93
2018-09-03T02:54:13.807Z,6.35
2018-09-03T02:56:44.105Z,6.32
2018-09-03T02:59:13.777Z,6.62
2018-09-03T03:01:43.213Z,6.70
2018-09-03T03:04:12.760Z,5.05
2018-09-03T03:06:42.504Z,5.40
2018-09-03T03:09:14.726Z,4.70
2018-09-03T03:11:44.651Z,6.60
2018-09-03T03:14:14.074Z,7.22
2018-09-03T03:16:43.838Z,9.18
2018-09-03T03:19:13.614Z,6.28
2018-09-03T03:21:43.337Z,7.55
2018-09-03T03:24:13.101Z,6.32
2018-09-03T03:26:43.204Z,6.10
2018-09-03T03:29:13.034Z,5.87
2018-09-03T03:31:43.315Z,6.97
2018-09-03T03:34:13.051Z,5.32
2018-09-03T03:36:43.377Z,6.75
2018-09-03T03:39:13.799Z,5.72
2018-09-03T03:41:44.640Z,6.18
2018-09-03T03:44:15.620Z,5.78
2018-09-03T03:46:45.104Z,7.68
2018-09-03T03:49:14.559Z,5.85
2018-09-03T03:51:43.881Z,9.10
2018-09-03T03:54:13.463Z,6.60
2018-09-03T03:56:43.429Z,7.85
2018-09-03T03:59:12.782Z,8.32
2018-09-03T04:01:42.356Z,13.70
2018-09-03T04:04:11.928Z,13.82
2018-09-03T04:06:41.909Z,9.48
2018-09-03T04:09:15.113Z,10.23
2018-09-03T04:11:47.499Z,6.97
2018-09-03T04:14:17.429Z,6.53
2018-09-03T04:16:46.947Z,6.93
2018-09-03T04:19:16.461Z,7.00
2018-09-03T04:21:46.068Z,5.12
2018-09-03T04:24:15.483Z,5.45
2018-09-03T04:26:44.840Z,8.68
2018-09-03T04:29:13.746Z,6.22
2018-09-03T04:31:43.243Z,8.75
2018-09-03T04:34:12.117Z,6.35
2018-09-03T04:36:41.678Z,5.35
2018-09-03T04:39:12.366Z,6.53
2018-09-03T04:41:42.216Z,6.35
2018-09-03T04:44:12.062Z,6.15
2018-09-03T04:46:41.706Z,4.75
2018-09-03T04:49:11.085Z,4.50
2018-09-03T04:51:40.534Z,4.60
2018-09-03T04:54:09.996Z,5.12
2018-09-03T04:56:39.364Z,4.68
2018-09-03T04:59:09.570Z,5.95
2018-09-03T05:01:39.111Z,6.60
2018-09-03T05:04:08.945Z,6.57
2018-09-03T05:06:38.664Z,6.30
2018-09-03T05:09:09.110Z,6.72
2018-09-03T05:11:38.503Z,6.53
2018-09-03T05:14:08.871Z,7.43
2018-09-03T05:16:39.847Z,5.87
2018-09-03T05:19:09.359Z,5.80
2018-09-03T05:21:39.071Z,6.32
2018-09-03T05:24:08.397Z,5.22
2018-09-03T05:26:38.059Z,7.25
2018-09-03T05:29:07.933Z,7.45
2018-09-03T05:31:37.201Z,6.10
2018-09-03T05:34:07.623Z,6.97
2018-09-03T05:36:37.206Z,5.97
2018-09-03T05:39:07.031Z,6.57
2018-09-03T05:41:36.749Z,6.30
2018-09-03T05:44:06.412Z,8.13
2018-09-03T05:46:36.854Z,9.23
2018-09-03T05:49:06.552Z,10.07
2018-09-03T05:51:35.879Z,8.77
2018-09-03T05:54:05.409Z,14.40
2018-09-03T05:56:35.300Z,7.30
2018-09-03T05:59:04.876Z,9.90
2018-09-03T06:01:34.669Z,9.90
2018-09-03T06:04:04.162Z,9.63
2018-09-03T06:06:33.714Z,9.48
2018-09-03T06:09:04.787Z,9.18
2018-09-03T06:11:34.891Z,9.52
2018-09-03T06:14:06.076Z,9.25
2018-09-03T06:16:35.776Z,10.73
2018-09-03T06:19:06.043Z,10.32
2018-09-03T06:21:35.684Z,10.93
2018-09-03T06:24:05.268Z,11.50
2018-09-03T06:26:35.330Z,10.00
2018-09-03T06:29:04.806Z,11.95
2018-09-03T06:31:34.865Z,8.48
2018-09-03T06:34:04.417Z,8.77
2018-09-03T06:36:34.311Z,9.90
2018-09-03T06:39:04.124Z,9.02
2018-09-03T06:41:34.562Z,11.10
2018-09-03T06:44:03.916Z,8.57
2018-09-03T06:46:34.609Z,10.10
2018-09-03T06:49:04.039Z,10.23
2018-09-03T06:51:33.655Z,11.55
2018-09-03T06:54:03.492Z,9.98
2018-09-03T06:56:34.955Z,10.23
2018-09-03T06:59:04.680Z,11.93
2018-09-03T07:01:34.039Z,10.80
2018-09-03T07:04:03.667Z,10.77
2018-09-03T07:06:33.201Z,10.05
2018-09-03T07:09:03.142Z,10.13
2018-09-03T07:11:33.622Z,10.15
2018-09-03T07:14:03.049Z,12.23
2018-09-03T07:16:32.904Z,13.90
2018-09-03T07:19:02.468Z,11.52
2018-09-03T07:21:34.270Z,16.55
2018-09-03T07:24:04.042Z,19.50
2018-09-03T07:26:35.492Z,16.58
2018-09-03T07:29:06.118Z,15.75
2018-09-03T07:31:35.459Z,18.83
2018-09-03T07:34:05.387Z,24.17
2018-09-03T07:36:35.600Z,22.58
2018-09-03T07:39:05.336Z,30.05
2018-09-03T07:41:34.952Z,36.80
2018-09-03T07:44:04.804Z,37.72
2018-09-03T07:46:34.412Z,37.30
2018-09-03T07:49:04.880Z,38.55
2018-09-03T07:51:34.951Z,38.63
2018-09-03T07:54:04.968Z,36.55
2018-09-03T07:56:35.275Z,34.53
2018-09-03T07:59:04.684Z,32.65
2018-09-03T08:01:33.952Z,30.98
2018-09-03T08:04:03.265Z,29.27
2018-09-03T08:06:32.750Z,28.15
2018-09-03T08:09:03.259Z,27.30
2018-09-03T08:11:32.805Z,28.75
2018-09-03T08:14:02.781Z,20.98
2018-09-03T08:16:32.831Z,24.98
2018-09-03T08:19:02.399Z,20.73
2018-09-03T08:21:31.918Z,19.08
2018-09-03T08:24:01.361Z,16.55
2018-09-03T08:26:31.393Z,16.83
2018-09-03T08:29:01.281Z,12.23
2018-09-03T08:31:30.872Z,13.85
2018-09-03T08:34:00.626Z,11.65
2018-09-03T08:36:30.538Z,11.60
2018-09-03T08:38:59.940Z,9.90
2018-09-03T08:41:29.388Z,9.73
2018-09-03T08:43:58.932Z,9.02
2018-09-03T08:46:28.928Z,8.68
2018-09-03T08:48:58.446Z,7.00
2018-09-03T08:51:28.769Z,8.50
2018-09-03T08:53:59.256Z,8.43
2018-09-03T08:56:28.907Z,8.38
2018-09-03T08:58:58.540Z,8.02
2018-09-03T09:01:28.392Z,9.93
2018-09-03T09:03:57.668Z,6.60
2018-09-03T09:06:28.195Z,6.47
2018-09-03T09:08:58.971Z,7.32
2018-09-03T09:11:28.563Z,6.03
2018-09-03T09:13:58.624Z,7.05
2018-09-03T09:16:27.979Z,6.05
2018-09-03T09:18:58.649Z,7.50
2018-09-03T09:21:28.231Z,6.00
2018-09-03T09:23:57.749Z,6.47
2018-09-03T09:26:27.573Z,5.62
2018-09-03T09:28:56.890Z,5.90
2018-09-03T09:31:26.449Z,4.37
2018-09-03T09:33:56.293Z,6.32
2018-09-03T09:36:25.681Z,5.35
2018-09-03T09:38:55.293Z,5.60
2018-09-03T09:41:24.984Z,6.75
2018-09-03T09:43:55.268Z,5.40
2018-09-03T09:46:24.868Z,5.55
2018-09-03T09:48:54.390Z,5.18
2018-09-03T09:51:23.908Z,7.25
2018-09-03T09:53:54.626Z,4.53
2018-09-03T09:56:23.960Z,4.45
2018-09-03T09:58:54.114Z,7.07
2018-09-03T10:01:39.551Z,5.97
2018-09-03T10:04:09.201Z,4.35
2018-09-03T10:06:38.560Z,4.07
2018-09-03T10:09:09.697Z,3.67
2018-09-03T10:11:39.783Z,3.95
2018-09-03T10:14:09.803Z,4.65
2018-09-03T10:16:40.215Z,3.75
2018-09-03T10:19:10.632Z,5.00
2018-09-03T10:21:40.970Z,5.47
2018-09-03T10:24:10.439Z,4.03
2018-09-03T10:26:40.769Z,4.35
2018-09-03T10:29:11.094Z,5.05
2018-09-03T10:31:41.241Z,6.20
2018-09-03T10:34:10.531Z,6.07
2018-09-03T10:36:41.540Z,5.53
2018-09-03T10:39:11.085Z,5.68
2018-09-03T10:41:40.752Z,4.00
2018-09-03T10:44:10.892Z,5.35
2018-09-03T10:46:40.439Z,5.37
2018-09-03T10:49:10.061Z,5.97
2018-09-03T10:51:39.734Z,4.82
2018-09-03T10:54:09.321Z,4.90
2018-09-03T10:56:39.071Z,5.35
2018-09-03T10:59:08.224Z,3.87
2018-09-03T11:01:38.570Z,3.87
2018-09-03T11:04:07.965Z,3.85
2018-09-03T11:06:37.413Z,5.82
2018-09-03T11:09:07.201Z,4.90
2018-09-03T11:11:36.933Z,6.43
2018-09-03T11:14:08.132Z,3.67
2018-09-03T11:16:37.557Z,3.80
2018-09-03T11:19:07.393Z,5.28
2018-09-03T11:21:36.865Z,5.45
2018-09-03T11:24:07.223Z,4.07
2018-09-03T11:26:36.792Z,3.85
2018-09-03T11:29:08.174Z,3.92
2018-09-03T11:31:37.680Z,3.37
2018-09-03T11:34:07.235Z,5.40
2018-09-03T11:36:36.608Z,4.22
2018-09-03T11:39:06.467Z,4.82
2018-09-03T11:41:36.198Z,4.25
2018-09-03T11:44:06.789Z,3.55
2018-09-03T11:46:38.057Z,3.12
2018-09-03T11:49:08.204Z,5.00
2018-09-03T11:51:41.422Z,4.53
2018-09-03T11:54:11.015Z,3.25
2018-09-03T11:56:41.229Z,4.12
2018-09-03T11:59:10.568Z,3.92
2018-09-03T12:01:39.962Z,3.45
2018-09-03T12:04:09.612Z,5.65
2018-09-03T12:06:39.299Z,4.32
2018-09-03T12:09:08.916Z,4.15
2018-09-03T12:11:38.262Z,3.00
2018-09-03T12:14:08.149Z,4.75
2018-09-03T12:16:37.821Z,3.17
2018-09-03T12:19:08.431Z,4.05
2018-09-03T12:21:37.792Z,3.85
2018-09-03T12:24:07.262Z,2.53
2018-09-03T12:26:37.921Z,3.83
2018-09-03T12:29:07.369Z,2.83
2018-09-03T12:31:37.844Z,4.50
2018-09-03T12:34:07.361Z,5.10
2018-09-03T12:36:36.790Z,3.85
2018-09-03T12:39:07.580Z,6.87
2018-09-03T12:41:37.180Z,4.53
2018-09-03T12:44:06.901Z,2.95
2018-09-03T12:46:36.372Z,5.53
2018-09-03T12:49:05.968Z,3.47
2018-09-03T12:51:35.279Z,4.72
2018-09-03T12:54:07.153Z,3.55
2018-09-03T12:56:36.671Z,3.83
2018-09-03T12:59:06.951Z,4.15
2018-09-03T13:01:36.387Z,4.07
2018-09-03T13:04:05.877Z,4.22
2018-09-03T13:06:35.363Z,5.85
2018-09-03T13:09:05.748Z,3.70
2018-09-03T13:11:36.204Z,3.80
2018-09-03T13:14:06.073Z,3.03
2018-09-03T13:16:35.365Z,3.78
2018-09-03T13:19:05.914Z,4.18
2018-09-03T13:21:35.453Z,3.78
2018-09-03T13:24:04.971Z,4.60
2018-09-03T13:26:34.421Z,4.93
2018-09-03T13:29:03.740Z,4.85
2018-09-03T13:31:33.572Z,3.70
2018-09-03T13:34:03.075Z,5.62
2018-09-03T13:36:32.448Z,4.87
2018-09-03T13:39:01.979Z,5.70
2018-09-03T13:41:31.387Z,6.37
2018-09-03T13:44:01.336Z,6.15
2018-09-03T13:46:30.919Z,6.55
2018-09-03T13:49:00.049Z,6.03
2018-09-03T13:51:30.612Z,6.57
2018-09-03T13:54:00.145Z,7.15
2018-09-03T13:56:29.830Z,7.50
2018-09-03T13:58:59.259Z,7.50
2018-09-03T14:01:28.856Z,9.10
2018-09-03T14:03:58.413Z,6.68
2018-09-03T14:06:30.205Z,5.70
2018-09-03T14:08:59.617Z,8.63
2018-09-03T14:11:29.082Z,7.55
2018-09-03T14:13:58.436Z,7.07
2018-09-03T14:16:28.296Z,5.60
2018-09-03T14:18:58.244Z,7.97
2018-09-03T14:21:28.165Z,7.85
2018-09-03T14:23:57.511Z,6.90
2018-09-03T14:26:28.189Z,7.28
2018-09-03T14:28:57.515Z,5.87
2018-09-03T14:31:27.367Z,7.95
2018-09-03T14:33:56.702Z,9.23
2018-09-03T14:36:27.287Z,7.55
2018-09-03T14:38:57.201Z,7.30
2018-09-03T14:41:26.780Z,6.95
2018-09-03T14:43:56.046Z,7.75
2018-09-03T14:46:26.053Z,9.10
2018-09-03T14:48:55.539Z,7.85
2018-09-03T14:51:24.931Z,9.85
2018-09-03T14:53:54.315Z,6.85
2018-09-03T14:56:25.076Z,6.72
2018-09-03T14:58:54.909Z,7.32
2018-09-03T15:01:25.025Z,7.85
2018-09-03T15:03:54.495Z,7.43
2018-09-03T15:06:23.983Z,7.53
2018-09-03T15:08:53.494Z,5.97
2018-09-03T15:11:22.887Z,8.10
2018-09-03T15:13:52.561Z,7.82
2018-09-03T15:16:22.933Z,7.18
2018-09-03T15:18:53.132Z,7.40
2018-09-03T15:21:23.105Z,6.05
2018-09-03T15:23:52.741Z,5.47
2018-09-03T15:26:22.466Z,6.03
2018-09-03T15:28:51.937Z,10.20
2018-09-03T15:31:22.092Z,5.57
2018-09-03T15:33:51.824Z,5.37
2018-09-03T15:36:21.294Z,5.95
2018-09-03T15:38:50.555Z,6.65
2018-09-03T15:41:20.522Z,5.62
2018-09-03T15:43:53.041Z,6.93
2018-09-03T15:46:24.572Z,3.75
2018-09-03T15:48:54.670Z,4.90
2018-09-03T15:51:26.727Z,5.10
2018-09-03T15:53:58.976Z,3.78
2018-09-03T15:56:28.748Z,4.32
2018-09-03T15:59:02.986Z,4.05
2018-09-03T16:01:33.756Z,5.05
2018-09-03T16:04:03.841Z,5.30
2018-09-03T16:06:41.261Z,4.47
2018-09-03T16:09:11.290Z,5.85
2018-09-03T16:11:43.259Z,6.03
2018-09-03T16:14:12.856Z,4.25
2018-09-03T16:16:47.034Z,3.83
2018-09-03T16:19:16.960Z,3.80
2018-09-03T16:21:46.556Z,2.83
2018-09-03T16:24:15.982Z,4.68
2018-09-03T16:26:46.445Z,4.03
2018-09-03T16:29:16.905Z,7.37
2018-09-03T16:31:46.118Z,5.80
2018-09-03T16:34:15.653Z,5.45
2018-09-03T16:36:45.993Z,4.37
2018-09-03T16:39:16.005Z,4.75
2018-09-03T16:41:45.303Z,4.07
2018-09-03T16:44:14.805Z,5.47
2018-09-03T16:46:44.495Z,6.43
2018-09-03T16:49:13.985Z,4.97
2018-09-03T16:51:43.642Z,6.28
2018-09-03T16:54:13.597Z,5.32
2018-09-03T16:56:43.244Z,3.33
2018-09-03T16:59:12.627Z,6.68
2018-09-03T17:01:42.161Z,4.93
2018-09-03T17:04:11.776Z,5.72
2018-09-03T17:06:41.148Z,5.15
2018-09-03T17:09:12.703Z,5.53
2018-09-03T17:11:42.466Z,4.32
2018-09-03T17:14:11.828Z,4.37
2018-09-03T17:16:42.750Z,3.45
2018-09-03T17:19:13.275Z,5.20
2018-09-03T17:21:42.872Z,18.87
2018-09-03T17:24:12.406Z,4.15
2018-09-03T17:26:42.929Z,4.65
2018-09-03T17:29:13.464Z,4.12
2018-09-03T17:31:45.169Z,4.10
2018-09-03T17:34:14.729Z,4.87
2018-09-03T17:36:44.852Z,4.32
2018-09-03T17:39:14.246Z,3.65
2018-09-03T17:41:43.836Z,2.95
2018-09-03T17:44:13.801Z,3.80
2018-09-03T17:46:43.281Z,4.35
2018-09-03T17:49:12.994Z,4.07
2018-09-03T17:51:42.595Z,3.15
2018-09-03T17:54:12.199Z,4.20
2018-09-03T17:56:41.912Z,3.90
2018-09-03T17:59:13.196Z,3.25
2018-09-03T18:01:42.864Z,3.60
2018-09-03T18:04:13.592Z,2.90
2018-09-03T18:06:43.891Z,3.22
2018-09-03T18:09:13.082Z,3.00
2018-09-03T18:11:44.266Z,4.95
2018-09-03T18:14:21.279Z,3.00
2018-09-03T18:16:50.821Z,2.42
2018-09-03T18:19:20.271Z,4.03
2018-09-03T18:21:49.722Z,2.65
2018-09-03T18:24:19.177Z,2.85
2018-09-03T18:26:48.653Z,2.90
2018-09-03T18:29:18.487Z,3.55
2018-09-03T18:31:47.594Z,5.03
2018-09-03T18:34:17.068Z,4.43
2018-09-03T18:36:46.632Z,3.55
2018-09-03T18:39:16.168Z,4.43
2018-09-03T18:41:45.799Z,4.85
2018-09-03T18:44:15.611Z,5.32
2018-09-03T18:46:46.935Z,4.35
2018-09-03T18:49:16.425Z,4.30
2018-09-03T18:51:45.817Z,5.85
2018-09-03T18:54:15.503Z,5.22
2018-09-03T18:56:45.291Z,3.72
2018-09-03T18:59:15.519Z,4.07
2018-09-03T19:01:45.110Z,3.70
2018-09-03T19:04:15.928Z,4.03
2018-09-03T19:06:45.642Z,4.10
2018-09-03T19:09:15.036Z,4.75
2018-09-03T19:11:44.479Z,5.93
2018-09-03T19:14:14.072Z,6.03
2018-09-03T19:16:43.639Z,6.75
2018-09-03T19:19:13.392Z,4.28
2018-09-03T19:21:43.964Z,3.72
2018-09-03T19:24:14.832Z,3.45
2018-09-03T19:26:44.458Z,4.68
2018-09-03T19:29:15.505Z,4.05
2018-09-03T19:31:45.468Z,4.12
2018-09-03T19:34:15.009Z,3.15
2018-09-03T19:36:44.693Z,4.20
2018-09-03T19:39:14.793Z,4.57
2018-09-03T19:41:44.012Z,4.47
2018-09-03T19:44:13.922Z,5.82
2018-09-03T19:46:43.242Z,6.05
2018-09-03T19:49:12.625Z,4.70
2018-09-03T19:51:41.887Z,5.32
2018-09-03T19:54:11.955Z,5.03
2018-09-03T19:56:41.276Z,4.03
2018-09-03T19:59:10.598Z,5.72
2018-09-03T20:01:40.165Z,5.60
2018-09-03T20:04:10.553Z,4.78
2018-09-03T20:06:40.724Z,4.43
2018-09-03T20:09:10.540Z,6.15
2018-09-03T20:11:39.921Z,6.78
2018-09-03T20:14:09.598Z,4.22
2018-09-03T20:16:40.414Z,5.43
2018-09-03T20:19:10.502Z,8.40
2018-09-03T20:21:40.249Z,19.08
2018-09-03T20:24:12.871Z,13.50
2018-09-03T20:26:42.491Z,9.30
2018-09-03T20:29:11.823Z,4.93
2018-09-03T20:31:41.240Z,4.07
2018-09-03T20:34:11.463Z,5.75
2018-09-03T20:36:41.936Z,6.55
2018-09-03T20:39:11.357Z,5.30
2018-09-03T20:41:40.863Z,5.37
2018-09-03T20:44:10.454Z,4.75
2018-09-03T20:46:39.876Z,5.00
2018-09-03T20:49:09.377Z,5.15
2018-09-03T20:51:39.029Z,5.30
2018-09-03T20:54:08.756Z,4.07
2018-09-03T20:56:39.277Z,3.87
2018-09-03T20:59:10.165Z,3.45
2018-09-03T21:01:39.921Z,4.03
2018-09-03T21:04:09.448Z,3.25
2018-09-03T21:06:40.549Z,4.15
2018-09-03T21:09:11.131Z,3.45
2018-09-03T21:11:40.611Z,3.72
2018-09-03T21:14:10.154Z,3.92
2018-09-03T21:16:40.381Z,5.37
2018-09-03T21:19:10.224Z,4.00
2018-09-03T21:21:40.219Z,5.25
2018-09-03T21:24:10.696Z,3.47
2018-09-03T21:26:40.409Z,4.47
2018-09-03T21:29:09.893Z,5.25
2018-09-03T21:31:40.198Z,3.45
2018-09-03T21:34:09.943Z,3.70
2018-09-03T21:36:40.372Z,3.83
2018-09-03T21:39:10.096Z,3.37
2018-09-03T21:41:40.587Z,3.17
2018-09-03T21:44:10.360Z,4.43
2018-09-03T21:46:40.117Z,6.85
2018-09-03T21:49:09.931Z,4.57
2018-09-03T21:51:40.088Z,4.65
2018-09-03T21:54:09.423Z,4.72
2018-09-03T21:56:39.300Z,5.82
2018-09-03T21:59:08.730Z,5.00
2018-09-03T22:01:40.064Z,4.25
2018-09-03T22:04:10.656Z,3.55
2018-09-03T22:06:41.060Z,3.87
2018-09-03T22:09:10.653Z,3.87
2018-09-03T22:11:40.281Z,5.53
2018-09-03T22:14:11.055Z,3.70
2018-09-03T22:16:41.860Z,3.58
2018-09-03T22:19:11.565Z,3.80
2018-09-03T22:21:43.618Z,3.10
2018-09-03T22:24:13.079Z,3.85
2018-09-03T22:26:43.687Z,3.83
2018-09-03T22:29:13.156Z,2.85
2018-09-03T22:31:42.600Z,3.10
2018-09-03T22:34:13.610Z,3.83
2018-09-03T22:36:43.130Z,3.10
2018-09-03T22:39:13.513Z,2.97
2018-09-03T22:41:43.196Z,4.10
2018-09-03T22:44:12.898Z,2.80
2018-09-03T22:46:42.251Z,5.57
2018-09-03T22:49:12.732Z,5.40
2018-09-03T22:51:41.834Z,3.75
2018-09-03T22:54:11.370Z,2.28
2018-09-03T22:56:40.649Z,2.60
2018-09-03T22:59:09.833Z,2.20
2018-09-03T23:01:44.779Z,3.47
2018-09-03T23:04:13.961Z,3.20
2018-09-03T23:06:43.641Z,2.58
2018-09-03T23:09:13.665Z,2.58
2018-09-03T23:11:43.666Z,2.28
2018-09-03T23:14:14.219Z,3.12
2018-09-03T23:16:43.805Z,3.10
2018-09-03T23:21:59.644Z,4.43
2018-09-03T23:24:39.763Z,2.62
2018-09-03T23:27:09.792Z,2.20
2018-09-03T23:29:39.136Z,2.20
2018-09-03T23:32:08.751Z,2.67
2018-09-03T23:34:38.113Z,3.03
2018-09-03T23:37:07.629Z,1.95
2018-09-03T23:39:36.921Z,5.15
2018-09-03T23:42:06.606Z,3.00
2018-09-03T23:44:36.309Z,2.12
2018-09-03T23:47:06.671Z,1.85
2018-09-03T23:49:36.868Z,2.45
2018-09-03T23:52:06.295Z,3.03
2018-09-03T23:54:35.608Z,3.45
2018-09-03T23:57:05.320Z,4.57
2018-09-03T23:59:34.640Z,2.67
